Terminal Aerodrome Forecast
Issued by NWS Atlanta, GA

Home | Current Version | Previous Version | Text Only | Print | Product List | Glossary On
Versions: 1 2 3 4 5 6 7 8 9 10 11 12 13 14 15 16 17 18 19 20 21 22 23 24 25 26 27 28 29 30 31 32 33 34 35 36 37 38 39
538
FTUS42 KFFC 011136
TAFAHN
TAF
KAHN 011136Z 0112/0212 14004KT 2SM BR BKN003
     FM011400 21006KT P6SM BKN008
     FM011600 23007KT P6SM VCSH BKN025
     FM012000 23009KT 4SM -TSRA BKN030CB
     FM012300 23006KT P6SM VCSH OVC040
     FM020200 00000KT P6SM SCT060 BKN250=

USA.gov is the U.S. government's official web portal to all federal, state and local government web resources and services.